createdAt,value
2018-03-26T00:01:16.836Z,17.07
2018-03-26T00:06:20.170Z,21.97
2018-03-26T00:11:23.393Z,17.90
2018-03-26T00:16:27.019Z,19.13
2018-03-26T00:21:30.247Z,22.13
2018-03-26T00:26:33.460Z,16.50
2018-03-26T00:31:36.700Z,20.23
2018-03-26T00:36:39.934Z,18.97
2018-03-26T00:41:43.600Z,18.83
2018-03-26T00:46:50.024Z,18.17
2018-03-26T00:51:53.406Z,19.80
2018-03-26T00:56:56.655Z,16.57
2018-03-26T01:01:59.912Z,16.83
2018-03-26T01:07:03.145Z,16.87
2018-03-26T01:12:06.852Z,20.03
2018-03-26T01:17:10.160Z,18.27
2018-03-26T01:22:13.367Z,17.70
2018-03-26T01:27:16.779Z,19.47
2018-03-26T01:32:20.013Z,17.87
2018-03-26T01:37:23.390Z,20.20
2018-03-26T01:42:26.608Z,21.73
2018-03-26T01:47:30.212Z,23.97
2018-03-26T01:52:33.434Z,18.27
2018-03-26T01:57:37.049Z,22.80
2018-03-26T02:07:50.507Z,16.27
2018-03-26T02:12:54.188Z,18.63
2018-03-26T02:17:57.428Z,16.50
2018-03-26T02:23:00.637Z,17.00
2018-03-26T02:28:03.863Z,20.63
2018-03-26T02:33:07.494Z,18.17
2018-03-26T02:38:10.820Z,21.93
2018-03-26T02:43:14.084Z,19.73
2018-03-26T02:48:17.719Z,24.37
2018-03-26T02:53:21.093Z,22.30
2018-03-26T02:58:24.338Z,25.97
2018-03-26T03:03:27.683Z,21.93
2018-03-26T03:08:31.019Z,24.73
2018-03-26T03:13:34.268Z,20.97
2018-03-26T03:18:37.500Z,25.67
2018-03-26T03:23:40.836Z,21.93
2018-03-26T03:28:44.066Z,21.43
2018-03-26T03:33:47.329Z,20.23
2018-03-26T03:38:50.557Z,23.20
2018-03-26T03:43:54.179Z,24.43
2018-03-26T03:48:57.809Z,22.07
2018-03-26T03:54:01.106Z,23.87
2018-03-26T03:59:04.720Z,25.73
2018-03-26T04:04:08.395Z,23.93
2018-03-26T04:09:11.635Z,23.47
2018-03-26T04:14:15.352Z,24.00
2018-03-26T04:19:18.968Z,21.00
2018-03-26T04:24:22.180Z,24.13
2018-03-26T04:29:26.161Z,21.47
2018-03-26T04:34:29.389Z,29.03
2018-03-26T04:39:33.332Z,27.03
2018-03-26T04:44:37.016Z,24.20
2018-03-26T04:49:40.241Z,20.93
2018-03-26T04:54:43.531Z,23.03
2018-03-26T04:59:46.808Z,21.00
2018-03-26T05:04:50.176Z,22.30
2018-03-26T05:09:54.802Z,17.67
2018-03-26T05:14:59.034Z,26.93
2018-03-26T05:20:02.652Z,32.13
2018-03-26T05:25:06.271Z,27.20
2018-03-26T05:30:09.873Z,22.67
2018-03-26T05:35:13.081Z,22.07
2018-03-26T05:40:16.329Z,23.67
2018-03-26T05:45:19.591Z,24.73
2018-03-26T05:50:22.828Z,28.53
2018-03-26T05:55:26.058Z,26.40
2018-03-26T06:00:29.280Z,25.93
2018-03-26T06:05:32.502Z,30.10
2018-03-26T06:10:35.758Z,25.60
2018-03-26T06:15:39.027Z,23.83
2018-03-26T06:20:42.346Z,27.70
2018-03-26T06:25:45.993Z,24.73
2018-03-26T06:30:49.214Z,21.77
2018-03-26T06:35:52.773Z,20.67
2018-03-26T06:40:56.404Z,26.87
2018-03-26T06:46:00.005Z,21.40
2018-03-26T06:51:03.691Z,22.13
2018-03-26T06:56:06.931Z,25.60
2018-03-26T07:01:10.652Z,35.50
2018-03-26T07:06:14.574Z,30.33
2018-03-26T07:11:18.298Z,27.13
2018-03-26T07:16:22.259Z,27.07
2018-03-26T07:21:25.518Z,31.00
2018-03-26T07:26:28.748Z,29.23
2018-03-26T07:31:31.972Z,27.20
2018-03-26T07:36:35.234Z,27.20
2018-03-26T07:41:39.083Z,30.70
2018-03-26T07:46:42.317Z,25.73
2018-03-26T07:51:45.572Z,25.33
2018-03-26T07:56:50.690Z,22.73
2018-03-26T08:01:53.921Z,23.83
2018-03-26T08:06:57.641Z,22.00
2018-03-26T08:12:01.368Z,21.90
2018-03-26T08:17:05.047Z,22.03
2018-03-26T08:22:08.272Z,20.13
2018-03-26T08:27:11.883Z,17.23
2018-03-26T08:32:15.124Z,22.43
2018-03-26T08:37:18.344Z,20.87
2018-03-26T08:42:21.783Z,24.47
2018-03-26T08:47:24.961Z,27.80
2018-03-26T08:52:28.217Z,24.80
2018-03-26T08:57:31.436Z,24.30
2018-03-26T09:02:35.122Z,22.80
2018-03-26T09:07:38.449Z,26.03
2018-03-26T09:12:41.688Z,23.37
2018-03-26T09:17:44.916Z,22.80
2018-03-26T09:22:48.150Z,25.17
2018-03-26T09:27:51.498Z,28.63
2018-03-26T09:32:55.125Z,28.70
2018-03-26T09:37:58.503Z,26.73
2018-03-26T09:43:01.754Z,26.70
2018-03-26T09:48:05.114Z,26.67
2018-03-26T09:53:08.355Z,28.40
2018-03-26T09:58:11.570Z,31.70
2018-03-26T10:03:14.836Z,23.80
2018-03-26T10:08:18.073Z,27.40
2018-03-26T10:13:21.283Z,30.87
2018-03-26T10:18:24.523Z,30.43
2018-03-26T10:23:27.738Z,29.13
2018-03-26T10:28:30.960Z,27.60
2018-03-26T10:33:34.682Z,24.63
2018-03-26T10:38:37.896Z,28.83
2018-03-26T10:43:41.508Z,31.37
2018-03-26T10:48:45.130Z,28.97
2018-03-26T10:53:48.741Z,36.30
2018-03-26T10:58:52.368Z,25.93
2018-03-26T11:03:55.595Z,31.73
2018-03-26T11:08:58.815Z,29.53
2018-03-26T11:14:02.059Z,29.83
2018-03-26T11:19:05.300Z,25.43
2018-03-26T11:24:08.520Z,28.23
2018-03-26T11:29:11.735Z,30.53
2018-03-26T11:34:15.002Z,30.23
2018-03-26T11:39:18.660Z,27.63
2018-03-26T11:44:21.898Z,31.37
2018-03-26T11:49:25.214Z,26.90
2018-03-26T11:54:28.426Z,25.73
2018-03-26T11:59:32.053Z,25.23
2018-03-26T12:04:35.275Z,25.60
2018-03-26T12:09:38.488Z,32.47
2018-03-26T12:14:41.728Z,23.43
2018-03-26T12:25:21.562Z,29.17
2018-03-26T12:30:25.241Z,29.70
2018-03-26T12:35:40.471Z,25.90
2018-03-26T12:40:51.550Z,30.87
2018-03-26T12:51:44.140Z,23.65
2018-03-26T12:56:47.803Z,29.03
2018-03-26T13:02:03.063Z,24.87
2018-03-26T13:07:06.287Z,25.60
2018-03-26T13:12:09.522Z,31.58
2018-03-26T13:17:12.754Z,29.23
2018-03-26T13:22:16.371Z,27.97
2018-03-26T13:27:20.205Z,23.97
2018-03-26T13:32:23.901Z,26.43
2018-03-26T13:37:27.153Z,25.73
2018-03-26T13:42:30.373Z,26.63
2018-03-26T13:47:33.626Z,23.73
2018-03-26T13:52:37.297Z,23.90
2018-03-26T13:57:40.643Z,19.47
2018-03-26T14:02:44.278Z,20.27
2018-03-26T14:07:48.218Z,21.73
2018-03-26T14:13:03.514Z,21.37
2018-03-26T14:18:06.808Z,21.23
2018-03-26T14:23:10.044Z,22.13
2018-03-26T14:28:13.391Z,20.53
2018-03-26T14:33:16.637Z,23.23
2018-03-26T14:38:20.013Z,23.80
2018-03-26T14:43:23.759Z,21.23
2018-03-26T14:48:27.050Z,21.23
2018-03-26T14:53:30.719Z,20.60
2018-03-26T14:58:34.069Z,19.90
2018-03-26T15:03:37.774Z,20.47
2018-03-26T15:08:40.991Z,19.17
2018-03-26T15:13:45.009Z,20.63
2018-03-26T15:18:48.823Z,19.63
2018-03-26T15:23:52.078Z,21.87
2018-03-26T15:28:55.315Z,17.87
2018-03-26T15:33:58.564Z,18.00
2018-03-26T15:39:01.990Z,26.20
2018-03-26T15:44:05.360Z,37.00
2018-03-26T15:49:08.873Z,32.17
2018-03-26T15:54:12.122Z,19.10
2018-03-26T15:59:15.467Z,19.97
2018-03-26T16:04:19.308Z,20.87
2018-03-26T16:09:22.917Z,21.77
2018-03-26T16:14:26.245Z,21.53
2018-03-26T16:19:29.947Z,17.97
2018-03-26T16:24:33.664Z,21.87
2018-03-26T16:29:37.060Z,19.40
2018-03-26T16:34:40.267Z,16.20
2018-03-26T16:39:43.595Z,13.10
2018-03-26T16:44:47.203Z,19.73
2018-03-26T16:49:50.409Z,17.70
2018-03-26T16:54:54.128Z,15.33
2018-03-26T16:59:57.842Z,18.77
2018-03-26T17:05:01.450Z,18.40
2018-03-26T17:10:04.765Z,18.77
2018-03-26T17:15:08.039Z,18.40
2018-03-26T17:20:11.489Z,16.90
2018-03-26T17:25:14.790Z,16.87
2018-03-26T17:30:18.097Z,19.50
2018-03-26T17:35:21.406Z,19.73
2018-03-26T17:40:25.121Z,19.73
2018-03-26T17:45:28.531Z,19.73
2018-03-26T17:50:31.764Z,24.67
2018-03-26T17:55:34.979Z,20.77
2018-03-26T18:00:38.328Z,28.63
2018-03-26T18:05:41.568Z,27.17
2018-03-26T18:10:45.202Z,25.87
2018-03-26T18:15:48.449Z,24.57
2018-03-26T18:20:52.343Z,23.03
2018-03-26T18:25:55.589Z,21.87
2018-03-26T18:30:58.920Z,21.53
2018-03-26T18:36:02.553Z,22.20
2018-03-26T18:41:05.823Z,17.00
2018-03-26T18:46:09.120Z,16.83
2018-03-26T18:51:12.380Z,20.37
2018-03-26T18:56:15.724Z,26.93
2018-03-26T19:01:18.946Z,30.03
2018-03-26T19:06:22.360Z,28.30
2018-03-26T19:11:25.642Z,31.27
2018-03-26T19:16:28.856Z,25.40
2018-03-26T19:21:32.177Z,27.07
2018-03-26T19:26:36.002Z,26.90
2018-03-26T19:31:39.611Z,29.07
2018-03-26T19:36:42.824Z,32.13
2018-03-26T19:41:47.428Z,26.37
2018-03-26T19:46:51.887Z,24.20
2018-03-26T19:51:55.525Z,31.63
2018-03-26T19:56:58.742Z,27.00
2018-03-26T20:02:02.109Z,26.77
2018-03-26T20:07:05.825Z,23.70
2018-03-26T20:12:09.089Z,33.00
2018-03-26T20:17:12.316Z,23.10
2018-03-26T20:22:15.669Z,28.07
2018-03-26T20:27:18.889Z,29.00
2018-03-26T20:32:22.114Z,30.60
2018-03-26T20:37:25.568Z,32.03
2018-03-26T20:42:29.282Z,33.53
2018-03-26T20:47:32.906Z,33.03
2018-03-26T20:52:36.127Z,32.17
2018-03-26T20:57:39.502Z,35.57
2018-03-26T21:02:42.808Z,33.63
2018-03-26T21:07:46.053Z,37.27
2018-03-26T21:12:49.340Z,33.17
2018-03-26T21:17:52.561Z,34.10
2018-03-26T21:22:55.842Z,31.77
2018-03-26T21:27:59.625Z,31.97
2018-03-26T21:33:03.982Z,32.40
2018-03-26T21:38:07.832Z,33.43
2018-03-26T21:43:12.874Z,34.37
2018-03-26T21:48:16.145Z,34.80
2018-03-26T21:53:19.870Z,35.00
2018-03-26T21:58:23.127Z,37.10
2018-03-26T22:03:26.362Z,33.47
2018-03-26T22:08:30.094Z,36.27
2018-03-26T22:13:33.354Z,36.07
2018-03-26T22:18:36.791Z,38.40
2018-03-26T22:23:40.018Z,36.83
2018-03-26T22:28:43.359Z,31.23
2018-03-26T22:33:46.580Z,32.93
2018-03-26T22:38:49.926Z,39.37
2018-03-26T22:43:53.539Z,34.90
2018-03-26T22:48:57.186Z,34.07
2018-03-26T22:54:00.403Z,35.17
2018-03-26T22:59:03.650Z,37.33
2018-03-26T23:04:06.966Z,38.70
2018-03-26T23:09:10.606Z,35.27
2018-03-26T23:14:13.987Z,40.87
2018-03-26T23:19:17.210Z,43.27
2018-03-26T23:24:20.824Z,39.20
2018-03-26T23:29:24.058Z,36.73
2018-03-26T23:34:27.285Z,33.13
2018-03-26T23:39:30.497Z,34.50
2018-03-26T23:44:33.730Z,33.33
2018-03-26T23:49:36.936Z,43.50
2018-03-26T23:54:40.160Z,39.43
2018-03-26T23:59:43.782Z,32.70
